createdAt,value
2024-04-30T00:04:50.021Z,100.00
2024-04-30T00:09:51.683Z,100.00
2024-04-30T00:14:54.263Z,100.00
2024-04-30T00:19:56.039Z,100.00
2024-04-30T00:24:57.870Z,100.00
2024-04-30T00:29:59.526Z,100.00
2024-04-30T00:35:01.220Z,100.00
2024-04-30T00:40:03.335Z,100.00
2024-04-30T00:45:05.715Z,100.00
2024-04-30T00:50:07.850Z,100.00
2024-04-30T00:55:09.504Z,100.00
2024-04-30T01:00:12.406Z,100.00
2024-04-30T01:05:14.069Z,100.00
2024-04-30T01:10:17.698Z,100.00
2024-04-30T01:15:19.372Z,100.00
2024-04-30T01:20:21.007Z,100.00
2024-04-30T01:25:22.676Z,100.00
2024-04-30T01:30:24.338Z,100.00
2024-04-30T01:35:26.002Z,100.00
2024-04-30T01:40:27.784Z,100.00
2024-04-30T01:45:29.457Z,100.00
2024-04-30T01:50:31.124Z,100.00
2024-04-30T01:55:32.865Z,100.00
2024-04-30T02:00:34.608Z,100.00
2024-04-30T02:05:36.327Z,100.00
2024-04-30T02:10:38.019Z,100.00
2024-04-30T02:15:39.713Z,100.00
2024-04-30T02:20:41.361Z,100.00
2024-04-30T02:25:43.006Z,100.00
2024-04-30T02:31:03.332Z,100.00
2024-04-30T02:36:09.279Z,100.00
2024-04-30T02:41:10.920Z,100.00
2024-04-30T02:46:12.590Z,100.00
2024-04-30T02:51:14.289Z,100.00
2024-04-30T02:56:15.958Z,100.00
2024-04-30T03:01:17.685Z,100.00
2024-04-30T03:06:19.386Z,100.00
2024-04-30T03:11:21.071Z,100.00
2024-04-30T03:16:22.748Z,100.00
2024-04-30T03:21:24.423Z,100.00
2024-04-30T03:26:26.081Z,100.00
2024-04-30T03:31:28.045Z,100.00
2024-04-30T03:36:29.743Z,100.00
2024-04-30T03:41:31.408Z,100.00
2024-04-30T03:46:33.094Z,100.00
2024-04-30T03:51:34.810Z,100.00
2024-04-30T03:56:36.455Z,100.00
2024-04-30T04:01:38.165Z,100.00
2024-04-30T04:06:39.828Z,100.00
2024-04-30T04:12:00.207Z,100.00
2024-04-30T04:17:01.770Z,100.00
2024-04-30T04:22:03.479Z,100.00
2024-04-30T04:27:05.438Z,100.00
2024-04-30T04:32:07.389Z,100.00
2024-04-30T04:37:09.360Z,100.00
2024-04-30T04:42:11.058Z,100.00
2024-04-30T04:47:12.756Z,100.00
2024-04-30T04:52:14.423Z,100.00
2024-04-30T04:57:16.112Z,100.00
2024-04-30T05:02:17.857Z,100.00
2024-04-30T05:07:19.587Z,100.00
2024-04-30T05:12:21.246Z,100.00
2024-04-30T05:17:22.918Z,100.00
2024-04-30T05:22:24.734Z,100.00
2024-04-30T05:27:26.412Z,100.00
2024-04-30T05:32:29.998Z,91.50
2024-04-30T05:37:32.176Z,86.13
2024-04-30T05:42:33.870Z,84.37
2024-04-30T05:47:35.586Z,98.49
2024-04-30T05:52:37.299Z,89.72
2024-04-30T05:57:38.964Z,82.43
2024-04-30T06:02:40.621Z,74.86
2024-04-30T06:07:42.380Z,71.13
2024-04-30T06:12:44.122Z,67.70
2024-04-30T06:17:45.913Z,72.56
2024-04-30T06:22:47.674Z,70.93
2024-04-30T06:27:49.382Z,70.17
2024-04-30T06:32:51.135Z,70.13
2024-04-30T06:37:56.139Z,72.40
2024-04-30T06:42:57.851Z,68.09
2024-04-30T06:47:59.662Z,63.14
2024-04-30T06:53:01.362Z,62.46
2024-04-30T06:58:09.503Z,63.79
2024-04-30T07:03:11.437Z,64.51
2024-04-30T07:08:13.104Z,59.12
2024-04-30T07:13:14.829Z,58.52
2024-04-30T07:18:17.699Z,60.23
2024-04-30T07:23:19.490Z,58.57
2024-04-30T07:28:21.183Z,53.45
2024-04-30T07:33:22.886Z,53.65
2024-04-30T07:38:24.623Z,53.19
2024-04-30T07:43:26.405Z,54.52
2024-04-30T07:48:28.211Z,60.83
2024-04-30T07:53:29.951Z,58.65
2024-04-30T07:58:31.675Z,58.73
2024-04-30T08:03:33.385Z,57.67
2024-04-30T08:08:35.040Z,56.34
2024-04-30T08:13:38.924Z,54.50
2024-04-30T08:18:40.715Z,52.49
2024-04-30T08:23:42.443Z,50.49
2024-04-30T08:28:44.204Z,50.30
2024-04-30T08:33:46.496Z,51.42
2024-04-30T08:38:48.223Z,50.71
2024-04-30T08:43:49.957Z,48.01
2024-04-30T08:48:51.617Z,50.56
2024-04-30T08:53:53.313Z,44.85
2024-04-30T08:58:55.064Z,44.91
2024-04-30T09:03:56.915Z,45.80
2024-04-30T09:08:58.757Z,43.97
2024-04-30T09:14:00.412Z,44.25
2024-04-30T09:19:02.073Z,43.35
2024-04-30T09:24:07.546Z,43.21
2024-04-30T09:29:09.308Z,42.44
2024-04-30T09:34:11.027Z,42.82
2024-04-30T09:39:12.818Z,45.19
2024-04-30T09:44:14.474Z,46.08
2024-04-30T09:49:16.146Z,44.63
2024-04-30T09:54:17.798Z,45.42
2024-04-30T09:59:19.453Z,42.77
2024-04-30T10:04:30.783Z,43.85
2024-04-30T10:09:32.539Z,40.77
2024-04-30T10:14:34.276Z,39.16
2024-04-30T10:19:45.565Z,40.71
2024-04-30T10:24:47.271Z,36.07
2024-04-30T10:29:49.499Z,35.52
2024-04-30T10:34:57.482Z,39.19
2024-04-30T10:40:17.284Z,36.00
2024-04-30T10:45:25.113Z,33.46
2024-04-30T10:50:27.762Z,33.00
2024-04-30T10:55:29.464Z,33.99
2024-04-30T11:00:31.961Z,33.16
2024-04-30T11:05:33.857Z,32.67
2024-04-30T11:10:37.023Z,32.66
2024-04-30T11:15:38.758Z,31.80
2024-04-30T11:20:40.407Z,33.33
2024-04-30T11:25:42.124Z,33.52
2024-04-30T11:30:43.819Z,33.92
2024-04-30T11:35:45.480Z,31.79
2024-04-30T11:40:47.194Z,31.94
2024-04-30T11:45:49.019Z,31.95
2024-04-30T11:50:50.944Z,33.42
2024-04-30T11:55:52.628Z,33.07
2024-04-30T12:00:54.334Z,37.93
2024-04-30T12:05:56.030Z,34.74
2024-04-30T12:10:57.730Z,35.20
2024-04-30T12:15:59.485Z,31.74
2024-04-30T12:21:01.252Z,30.50
2024-04-30T12:26:02.934Z,31.53
2024-04-30T12:31:04.755Z,32.19
2024-04-30T12:36:06.491Z,32.62
2024-04-30T12:41:08.146Z,32.53
2024-04-30T12:46:09.889Z,32.47
2024-04-30T12:51:15.451Z,31.63
2024-04-30T12:56:17.133Z,33.50
2024-04-30T13:01:21.573Z,31.18
2024-04-30T13:06:25.188Z,28.72
2024-04-30T13:11:26.894Z,29.40
2024-04-30T13:16:29.216Z,28.78
2024-04-30T13:21:31.488Z,29.27
2024-04-30T13:26:33.141Z,28.56
2024-04-30T13:31:36.847Z,29.12
2024-04-30T13:36:38.931Z,29.17
2024-04-30T13:41:40.621Z,28.71
2024-04-30T13:46:42.451Z,27.97
2024-04-30T13:51:45.281Z,28.16
2024-04-30T13:56:46.931Z,28.76
2024-04-30T14:01:48.907Z,28.75
2024-04-30T14:06:50.825Z,27.75
2024-04-30T14:11:52.470Z,28.03
2024-04-30T14:16:54.172Z,27.78
2024-04-30T14:21:55.855Z,29.14
2024-04-30T14:26:57.570Z,27.66
2024-04-30T14:31:59.243Z,27.79
2024-04-30T14:37:00.940Z,28.34
2024-04-30T14:42:02.632Z,26.73
2024-04-30T14:47:04.416Z,28.62
2024-04-30T14:52:06.266Z,27.20
2024-04-30T14:57:07.932Z,28.57
2024-04-30T15:02:09.572Z,28.08
2024-04-30T15:07:11.222Z,29.19
2024-04-30T15:12:12.890Z,29.79
2024-04-30T15:17:14.583Z,29.10
2024-04-30T15:22:16.516Z,32.08
2024-04-30T15:27:18.276Z,29.62
2024-04-30T15:32:20.023Z,30.18
2024-04-30T15:37:21.744Z,29.25
2024-04-30T15:42:24.524Z,30.06
2024-04-30T15:47:26.319Z,30.06
2024-04-30T15:52:28.089Z,31.11
2024-04-30T15:57:30.437Z,30.55
2024-04-30T16:02:32.226Z,32.37
2024-04-30T16:07:34.234Z,30.37
2024-04-30T16:12:35.962Z,31.45
2024-04-30T16:17:37.772Z,29.22
2024-04-30T16:22:39.563Z,30.37
2024-04-30T16:27:41.271Z,30.15
2024-04-30T16:32:43.021Z,30.57
2024-04-30T16:37:44.778Z,32.03
2024-04-30T16:42:46.488Z,36.06
2024-04-30T16:47:48.265Z,32.68
2024-04-30T16:52:49.984Z,32.55
2024-04-30T16:57:51.853Z,33.08
2024-04-30T17:02:53.686Z,33.07
2024-04-30T17:07:55.512Z,34.06
2024-04-30T17:12:57.266Z,35.03
2024-04-30T17:18:19.693Z,34.65
2024-04-30T17:23:21.481Z,35.90
2024-04-30T17:28:23.608Z,35.57
2024-04-30T17:33:25.527Z,36.37
2024-04-30T17:38:27.393Z,36.66
2024-04-30T17:43:29.780Z,37.13
2024-04-30T17:48:33.531Z,36.93
2024-04-30T17:53:35.248Z,37.43
2024-04-30T17:58:36.936Z,37.73
2024-04-30T18:03:38.746Z,37.76
2024-04-30T18:08:40.470Z,37.80
2024-04-30T18:13:44.362Z,38.21
2024-04-30T18:18:46.717Z,38.49
2024-04-30T18:23:48.502Z,38.58
2024-04-30T18:28:55.224Z,39.28
2024-04-30T18:33:57.330Z,38.85
2024-04-30T18:39:01.512Z,39.68
2024-04-30T18:44:03.224Z,40.40
2024-04-30T18:49:05.314Z,40.51
2024-04-30T18:54:07.115Z,40.48
2024-04-30T18:59:08.987Z,40.12
2024-04-30T19:04:10.741Z,40.67
2024-04-30T19:09:12.445Z,41.23
2024-04-30T19:14:14.831Z,42.07
2024-04-30T19:19:19.801Z,41.01
2024-04-30T19:24:23.528Z,40.86
2024-04-30T19:29:26.237Z,41.53
2024-04-30T19:34:27.999Z,41.91
2024-04-30T19:39:32.004Z,42.14
2024-04-30T19:44:34.049Z,41.62
2024-04-30T19:49:35.846Z,40.06
2024-04-30T19:54:37.560Z,39.84
2024-04-30T19:59:41.119Z,40.19
2024-04-30T20:04:43.420Z,40.24
2024-04-30T20:09:45.153Z,40.74
2024-04-30T20:14:46.999Z,40.77
2024-04-30T20:19:48.675Z,40.34
2024-04-30T20:24:50.405Z,40.79
2024-04-30T20:29:52.252Z,41.77
2024-04-30T20:34:53.953Z,42.75
2024-04-30T20:39:56.269Z,42.74
2024-04-30T20:44:57.993Z,43.53
2024-04-30T20:49:59.675Z,44.29
2024-04-30T20:55:01.370Z,45.08
2024-04-30T21:00:04.531Z,45.88
2024-04-30T21:05:06.605Z,47.74
2024-04-30T21:10:08.305Z,50.76
2024-04-30T21:15:09.967Z,51.31
2024-04-30T21:20:12.467Z,50.46
2024-04-30T21:25:14.298Z,49.27
2024-04-30T21:30:16.003Z,48.76
2024-04-30T21:35:17.705Z,48.78
2024-04-30T21:40:19.345Z,49.37
2024-04-30T21:45:21.047Z,50.33
2024-04-30T21:50:22.707Z,51.72
2024-04-30T21:55:24.342Z,53.62
2024-04-30T22:00:26.107Z,55.47
2024-04-30T22:05:27.845Z,56.93
2024-04-30T22:10:29.500Z,58.63
2024-04-30T22:15:31.249Z,60.23
2024-04-30T22:20:33.490Z,62.89
2024-04-30T22:25:35.132Z,64.66
2024-04-30T22:30:36.893Z,68.77
2024-04-30T22:35:38.614Z,71.79
2024-04-30T22:40:40.244Z,74.10
2024-04-30T22:45:41.885Z,75.78
2024-04-30T22:50:43.572Z,73.07
2024-04-30T22:55:45.206Z,72.62
2024-04-30T23:00:46.978Z,82.25
2024-04-30T23:05:48.668Z,88.68
2024-04-30T23:10:50.310Z,92.10
2024-04-30T23:15:51.999Z,94.49
2024-04-30T23:20:53.701Z,93.17
2024-04-30T23:25:55.360Z,91.23
2024-04-30T23:30:57.062Z,81.49
2024-04-30T23:35:58.767Z,70.88
2024-04-30T23:41:00.460Z,67.52
2024-04-30T23:46:02.676Z,73.05
2024-04-30T23:51:10.468Z,79.61
2024-04-30T23:56:12.484Z,80.53
